Time;durP1;ratioP1;P1;durP2;ratioP2;P2;SDS_P1;SDS_P2;PMS_P1;PMS_P2;Temp;Humidity;BMP_temperature;BMP_pressure;BME280_temperature;BME280_humidity;BME280_pressure;Samples;Min_cycle;Max_cycle;Signal;HPM_P1;HPM_P2
2022/06/09 00:00:26;;;;;;;10.50;8.90;;;;;;;20.78;66.53;98267.90;233342;1215;139035;-59
2022/06/09 00:05:40;;;;;;;11.50;10.10;;;;;;;20.78;66.57;98260.41;233890;1216;139168;-61
2022/06/09 00:10:49;;;;;;;11.10;9.90;;;;;;;20.78;66.68;98249.09;234070;1215;141148;-60
2022/06/09 00:15:52;;;;;;;10.60;9.50;;;;;;;20.72;66.60;98249.36;233835;1216;139300;-61
2022/06/09 00:20:56;;;;;;;11.30;9.40;;;;;;;20.71;66.58;98247.75;233687;1216;139482;-59
2022/06/09 00:25:59;;;;;;;11.50;10.00;;;;;;;20.70;66.66;98251.90;233972;1216;139446;-60
2022/06/09 00:31:02;;;;;;;12.90;10.60;;;;;;;20.69;66.71;98248.14;233193;1216;138868;-61
2022/06/09 00:36:05;;;;;;;12.40;11.10;;;;;;;20.68;66.80;98249.94;233229;1217;139400;-60
2022/06/09 00:41:08;;;;;;;11.40;9.30;;;;;;;20.67;66.92;98242.57;232952;1216;139131;-60
2022/06/09 00:46:20;;;;;;;10.20;9.10;;;;;;;20.67;66.93;98256.30;233495;1216;139646;-59
2022/06/09 00:51:39;;;;;;;12.10;10.70;;;;;;;20.68;66.96;98277.69;232711;1216;140348;-60
2022/06/09 00:56:51;;;;;;;17.80;9.00;;;;;;;20.76;67.32;98331.08;233819;1217;139722;-62
2022/06/09 01:01:55;;;;;;;9.00;2.60;;;;;;;20.61;66.65;98367.14;234087;1217;140931;-61
2022/06/09 01:07:08;;;;;;;5.20;1.50;;;;;;;20.23;65.89;98315.16;233910;1217;139438;-60
2022/06/09 01:12:26;;;;;;;5.50;1.90;;;;;;;19.93;65.57;98267.27;234048;1215;140764;-60
2022/06/09 01:17:47;;;;;;;5.40;1.30;;;;;;;19.72;65.77;98235.61;234087;1216;139706;-59
2022/06/09 01:23:18;;;;;;;3.30;1.50;;;;;;;19.52;65.91;98223.80;234278;1216;138862;-59
2022/06/09 01:28:53;;;;;;;2.60;1.40;;;;;;;19.42;66.05;98218.08;234201;1216;138720;-60
2022/06/09 01:34:06;;;;;;;8.90;1.80;;;;;;;19.28;66.13;98223.05;233706;1216;140469;-60
2022/06/09 01:39:10;;;;;;;4.70;1.70;;;;;;;19.19;66.20;98214.44;233268;1217;139632;-60
2022/06/09 01:44:14;;;;;;;3.70;1.80;;;;;;;19.17;66.38;98215.65;234179;1217;140021;-60
2022/06/09 01:49:26;;;;;;;4.60;1.70;;;;;;;19.10;66.32;98210.16;233753;1217;139717;-60
2022/06/09 01:54:34;;;;;;;7.90;1.10;;;;;;;18.99;66.27;98205.77;233809;1216;139713;-60
2022/06/09 02:00:04;;;;;;;2.10;1.30;;;;;;;18.90;66.13;98199.98;232917;1216;139415;-61
2022/06/09 02:05:26;;;;;;;4.50;1.40;;;;;;;18.82;66.36;98198.30;232682;1214;138435;-59
2022/06/09 02:10:34;;;;;;;3.70;1.30;;;;;;;18.76;66.55;98197.52;233327;1216;138765;-61
2022/06/09 02:16:00;;;;;;;6.90;1.70;;;;;;;18.72;66.70;98191.54;234112;1217;138786;-59
2022/06/09 02:21:09;;;;;;;3.80;1.50;;;;;;;18.71;66.95;98184.93;234162;1215;138601;-60
2022/06/09 02:26:12;;;;;;;2.20;1.50;;;;;;;18.75;67.12;98189.21;234205;1216;139354;-60
2022/06/09 02:31:17;;;;;;;2.30;1.80;;;;;;;18.85;67.16;98183.07;234182;1215;139131;-58
2022/06/09 02:36:21;;;;;;;4.00;1.70;;;;;;;18.89;67.01;98188.02;234098;1215;140294;-59
2022/06/09 02:41:24;;;;;;;2.30;1.80;;;;;;;18.87;67.16;98194.48;234226;1216;140172;-60
2022/06/09 02:46:27;;;;;;;4.40;1.80;;;;;;;18.86;67.03;98195.67;234281;1216;138941;-59
2022/06/09 02:51:33;;;;;;;4.70;1.90;;;;;;;18.87;66.99;98194.85;234150;1216;139889;-59
2022/06/09 02:56:36;;;;;;;4.60;1.80;;;;;;;18.90;66.97;98197.02;234236;1217;139529;-60
2022/06/09 03:01:40;;;;;;;4.20;2.00;;;;;;;18.90;67.15;98200.79;234214;1217;139800;-60
2022/06/09 03:06:43;;;;;;;3.70;2.20;;;;;;;18.87;67.01;98194.13;234149;1216;139189;-61
2022/06/09 03:11:46;;;;;;;95.70;80.60;;;;;;;18.87;67.28;98190.95;234201;1216;138876;-61
2022/06/09 03:16:50;;;;;;;52.20;44.20;;;;;;;18.99;67.36;98194.33;234284;1216;140107;-60
2022/06/09 03:21:54;;;;;;;4.80;2.90;;;;;;;19.09;67.38;98201.99;234006;1217;139806;-61
2022/06/09 03:26:57;;;;;;;79.10;70.70;;;;;;;19.08;67.11;98202.62;234219;1216;138861;-61
2022/06/09 03:32:00;;;;;;;7.30;5.90;;;;;;;19.14;67.58;98196.23;234226;1215;139660;-61
2022/06/09 03:37:03;;;;;;;6.90;4.20;;;;;;;19.25;67.79;98193.18;234138;1216;140397;-60
2022/06/09 03:42:06;;;;;;;128.40;114.00;;;;;;;19.48;68.06;98201.10;234239;1216;139359;-59
2022/06/09 03:47:13;;;;;;;10.90;9.50;;;;;;;19.66;67.62;98197.44;234248;1216;139757;-59
2022/06/09 03:52:16;;;;;;;2.90;2.40;;;;;;;19.60;66.98;98192.69;234366;1215;139505;-57
2022/06/09 03:57:19;;;;;;;2.30;1.90;;;;;;;19.47;66.73;98188.96;234159;1217;139182;-58
2022/06/09 04:02:23;;;;;;;3.00;2.40;;;;;;;19.38;66.77;98186.35;234137;1217;139379;-58
2022/06/09 04:07:26;;;;;;;3.50;2.30;;;;;;;19.27;66.80;98184.20;234185;1216;138437;-59
2022/06/09 04:12:29;;;;;;;3.80;2.20;;;;;;;19.20;66.87;98193.55;234225;1216;139258;-59
2022/06/09 04:17:32;;;;;;;4.50;2.50;;;;;;;19.21;66.90;98199.96;234052;1216;139005;-59
2022/06/09 04:22:35;;;;;;;130.40;116.20;;;;;;;19.26;67.60;98192.44;234369;1216;138616;-59
2022/06/09 04:27:39;;;;;;;11.20;3.80;;;;;;;19.57;68.25;98191.02;234138;1217;141806;-59
2022/06/09 04:32:42;;;;;;;5.60;3.60;;;;;;;19.71;67.71;98192.71;234005;1216;140735;-58
2022/06/09 04:38:00;;;;;;;9.30;3.00;;;;;;;19.84;67.94;98190.15;234109;1216;139402;-58
2022/06/09 04:43:05;;;;;;;3.40;2.60;;;;;;;19.92;67.27;98189.98;234199;1215;139605;-58
2022/06/09 04:48:10;;;;;;;;;;;;;;;19.90;66.80;98191.07;233850;1216;138575;-58
2022/06/09 04:53:13;;;;;;;4.30;2.30;;;;;;;19.82;66.76;98192.59;234320;1214;125457;-58
2022/06/09 04:58:16;;;;;;;4.90;2.80;;;;;;;19.71;66.74;98198.09;234235;1216;138920;-57
2022/06/09 05:03:20;;;;;;;6.00;3.10;;;;;;;19.62;66.74;98202.11;233976;1217;138865;-58
2022/06/09 05:08:23;;;;;;;6.30;3.30;;;;;;;19.59;66.94;98205.85;233841;1217;139079;-60
2022/06/09 05:13:26;;;;;;;5.10;4.00;;;;;;;19.64;67.23;98205.38;234200;1216;138897;-59
2022/06/09 05:18:30;;;;;;;7.70;4.40;;;;;;;19.71;67.46;98200.13;234006;1216;138278;-60
2022/06/09 05:23:34;;;;;;;10.50;5.80;;;;;;;19.72;67.37;98206.83;233463;1216;138516;-60
2022/06/09 05:28:37;;;;;;;7.90;4.60;;;;;;;19.71;67.48;98196.17;234271;1216;139092;-60
2022/06/09 05:33:41;;;;;;;9.90;4.80;;;;;;;19.78;67.55;98209.24;233747;1217;140151;-59
2022/06/09 05:49:32;;;;;;;4.50;3.40;;;;;;;19.92;67.73;98214.19;234066;1216;138940;-60
2022/06/09 05:54:35;;;;;;;5.90;3.50;;;;;;;19.88;67.60;98216.36;234216;1216;138473;-59
2022/06/09 05:59:38;;;;;;;6.50;3.50;;;;;;;19.89;67.48;98217.11;234206;1216;140361;-60
2022/06/09 06:04:41;;;;;;;7.50;3.90;;;;;;;19.93;67.52;98214.59;234230;1217;138961;-58
2022/06/09 06:09:44;;;;;;;9.30;4.50;;;;;;;19.95;67.71;98209.61;234203;1216;138280;-57
2022/06/09 06:14:48;;;;;;;6.80;4.40;;;;;;;20.01;67.68;98220.42;234047;1216;139297;-58
2022/06/09 06:19:52;;;;;;;7.80;4.10;;;;;;;20.01;67.69;98224.06;234198;1216;138556;-58
2022/06/09 06:24:55;;;;;;;8.30;4.10;;;;;;;20.05;67.67;98219.30;234189;1216;139249;-59
2022/06/09 06:29:58;;;;;;;7.50;4.30;;;;;;;20.12;67.57;98224.64;232421;1216;138737;-57
2022/06/09 06:35:01;;;;;;;5.70;4.80;;;;;;;20.15;67.86;98221.21;233894;1217;138103;-60
2022/06/09 06:40:05;;;;;;;9.70;5.50;;;;;;;20.18;67.75;98222.52;233911;1216;138556;-59
2022/06/09 06:45:11;;;;;;;8.40;5.20;;;;;;;20.17;67.62;98227.14;234166;1217;139161;-59
2022/06/09 06:50:15;;;;;;;7.90;5.80;;;;;;;20.18;67.70;98223.39;233379;1216;139871;-60
2022/06/09 06:55:20;;;;;;;9.40;5.70;;;;;;;20.21;67.75;98225.97;234110;1216;138945;-59
2022/06/09 07:00:25;;;;;;;11.30;7.60;;;;;;;20.23;67.90;98225.45;234033;1216;139277;-60
2022/06/09 07:05:28;;;;;;;15.20;9.10;;;;;;;20.29;68.09;98231.94;234069;1217;139162;-60
2022/06/09 07:10:32;;;;;;;16.40;9.10;;;;;;;20.36;68.18;98227.09;234297;1216;138624;-61
2022/06/09 07:15:35;;;;;;;19.90;13.40;;;;;;;20.46;68.31;98228.62;234100;1217;139655;-58
2022/06/09 07:20:40;;;;;;;20.70;15.10;;;;;;;20.55;68.15;98231.86;234000;1216;139354;-59
2022/06/09 07:25:43;;;;;;;24.90;16.90;;;;;;;20.60;68.09;98222.17;234117;1217;139225;-60
2022/06/09 07:30:46;;;;;;;24.10;16.40;;;;;;;20.69;68.17;98222.18;234030;1216;139299;-60
2022/06/09 07:35:51;;;;;;;30.80;20.00;;;;;;;20.77;68.09;98223.79;234222;1214;138860;-60
2022/06/09 07:40:55;;;;;;;35.20;20.30;;;;;;;20.83;68.05;98226.96;234323;1216;140075;-59
2022/06/09 07:46:18;;;;;;;35.80;22.00;;;;;;;20.91;68.09;98222.09;234282;1217;139199;-59
2022/06/09 07:51:22;;;;;;;32.40;22.40;;;;;;;21.04;68.28;98220.60;234119;1216;139208;-59
2022/06/09 07:56:26;;;;;;;39.30;27.10;;;;;;;21.12;68.16;98221.95;234132;1216;139392;-59
2022/06/09 08:01:29;;;;;;;41.10;25.60;;;;;;;21.18;68.07;98221.56;234105;1217;139730;-59
2022/06/09 08:06:33;;;;;;;37.90;25.30;;;;;;;21.22;67.96;98218.91;233630;1217;139855;-61
2022/06/09 08:11:38;;;;;;;36.20;25.90;;;;;;;21.23;67.92;98218.10;233551;1217;140501;-59
2022/06/09 08:16:42;;;;;;;40.00;25.80;;;;;;;21.38;68.31;98227.52;234241;1217;138978;-60
2022/06/09 08:21:45;;;;;;;36.50;27.30;;;;;;;21.46;68.19;98233.61;234125;1217;139810;-57
2022/06/09 08:26:54;;;;;;;36.40;26.50;;;;;;;21.48;68.01;98237.91;233920;1217;138768;-59
2022/06/09 08:31:59;;;;;;;39.10;28.90;;;;;;;21.47;67.77;98240.36;234060;1217;139643;-59
2022/06/09 08:37:03;;;;;;;38.50;28.90;;;;;;;21.48;67.75;98245.02;234045;1217;139389;-59
2022/06/09 08:42:24;;;;;;;37.10;28.50;;;;;;;21.49;67.96;98251.70;234172;1217;139735;-59
2022/06/09 08:47:38;;;;;;;38.20;29.60;;;;;;;21.47;67.80;98250.08;234193;1216;139081;-60
2022/06/09 08:52:48;;;;;;;37.30;28.70;;;;;;;21.47;67.84;98253.34;234327;1216;139999;-62
2022/06/09 08:57:58;;;;;;;45.10;31.60;;;;;;;21.52;67.96;98256.02;234110;1216;140071;-59
2022/06/09 09:03:09;;;;;;;43.70;30.70;;;;;;;21.60;68.10;98252.36;234215;1217;139235;-60
2022/06/09 09:08:13;;;;;;;44.20;32.20;;;;;;;21.64;67.86;98257.60;234025;1217;139514;-60
2022/06/09 09:13:50;;;;;;;44.00;32.60;;;;;;;21.65;67.86;98267.30;234193;1217;138896;-60
2022/06/09 09:19:20;;;;;;;43.00;31.10;;;;;;;21.61;67.60;98265.79;234108;1216;139591;-59
2022/06/09 09:24:48;;;;;;;50.30;34.80;;;;;;;21.64;67.74;98265.21;234049;1217;140268;-59
2022/06/09 09:30:02;;;;;;;51.70;36.50;;;;;;;21.65;67.75;98263.64;234063;1217;140217;-60
2022/06/09 09:35:17;;;;;;;58.80;43.40;;;;;;;21.68;67.90;98259.33;234050;1216;139900;-59
2022/06/09 09:40:23;;;;;;;54.40;40.50;;;;;;;21.72;67.71;98269.29;234051;1217;139795;-59
2022/06/09 09:45:50;;;;;;;55.10;37.90;;;;;;;21.73;67.86;98261.18;234013;1217;139000;-57
2022/06/09 09:51:05;;;;;;;50.00;36.70;;;;;;;21.81;67.78;98261.05;234178;1216;139852;-59
2022/06/09 09:56:17;;;;;;;51.30;35.60;;;;;;;21.90;67.96;98257.92;234214;1217;140693;-58
2022/06/09 10:01:20;;;;;;;50.30;37.50;;;;;;;21.96;67.87;98250.97;234203;1216;139167;-60
2022/06/09 10:12:24;;;;;;;41.80;31.20;;;;;;;22.26;68.07;98249.05;234187;1216;139764;-59
2022/06/09 10:17:58;;;;;;;39.90;32.50;;;;;;;22.46;68.09;98239.43;234083;1217;140247;-59
2022/06/09 10:23:33;;;;;;;42.40;33.10;;;;;;;22.56;67.85;98239.67;233888;1216;139117;-59
2022/06/09 10:28:40;;;;;;;48.30;35.90;;;;;;;22.68;67.88;98239.06;234164;1217;139667;-60
2022/06/09 10:33:57;;;;;;;41.80;33.30;;;;;;;22.94;68.19;98226.48;234254;1217;139412;-59
2022/06/09 10:39:11;;;;;;;41.00;32.50;;;;;;;23.27;67.66;98234.52;234103;1215;139997;-59
2022/06/09 10:44:25;;;;;;;43.30;32.80;;;;;;;23.46;67.35;98235.67;233900;1217;139343;-59
2022/06/09 10:55:32;;;;;;;40.90;31.40;;;;;;;24.01;67.35;98222.52;234092;1217;139141;-59
2022/06/09 11:00:41;;;;;;;39.20;29.00;;;;;;;24.41;66.94;98222.06;234171;1216;139969;-61
2022/06/09 11:06:09;;;;;;;34.60;28.10;;;;;;;24.74;66.59;98212.10;234225;1216;139602;-60
2022/06/09 11:11:28;;;;;;;35.20;27.70;;;;;;;25.13;66.10;98210.80;233869;1216;139441;-58
2022/06/09 11:16:57;;;;;;;138.70;114.90;;;;;;;25.36;65.33;98204.48;233574;1217;139326;-60
2022/06/09 11:22:19;;;;;;;35.90;29.10;;;;;;;25.57;64.85;98202.18;233740;1216;139863;-59
2022/06/09 11:27:34;;;;;;;36.70;28.30;;;;;;;25.84;64.24;98205.27;233583;1217;140159;-58
2022/06/09 11:33:01;;;;;;;29.10;25.20;;;;;;;26.02;63.56;98201.83;233526;1217;140631;-59
2022/06/09 11:38:23;;;;;;;28.90;25.50;;;;;;;26.23;63.13;98192.50;233672;1216;139576;-61
2022/06/09 11:43:31;;;;;;;29.40;25.00;;;;;;;26.36;62.77;98185.52;233747;1216;139846;-60
2022/06/09 11:48:48;;;;;;;30.60;24.70;;;;;;;26.52;62.48;98191.67;233067;1217;139226;-61
2022/06/09 11:53:54;;;;;;;28.30;23.40;;;;;;;26.71;62.15;98194.05;233586;1217;139258;-60
2022/06/09 11:58:57;;;;;;;29.00;22.20;;;;;;;26.82;61.75;98180.88;233824;1217;139238;-61
2022/06/09 12:04:18;;;;;;;26.50;22.70;;;;;;;26.96;61.19;98176.06;233673;1217;139367;-62
2022/06/09 12:09:42;;;;;;;25.10;21.40;;;;;;;27.02;60.75;98164.18;232822;1216;139466;-61
2022/06/09 12:14:45;;;;;;;25.00;21.40;;;;;;;27.04;60.43;98148.19;233713;1215;138586;-61
2022/06/09 12:19:55;;;;;;;21.50;19.00;;;;;;;27.17;60.30;98136.30;233632;1217;141573;-60
2022/06/09 12:25:24;;;;;;;24.70;19.10;;;;;;;27.30;59.96;98124.59;233438;1215;139760;-61
2022/06/09 12:30:37;;;;;;;22.10;17.80;;;;;;;27.47;59.65;98124.91;232757;1217;139895;-60
2022/06/09 12:35:52;;;;;;;16.60;13.80;;;;;;;27.62;59.21;98129.72;233689;1217;139177;-60
2022/06/09 12:41:21;;;;;;;15.60;12.50;;;;;;;27.71;58.54;98137.77;233710;1217;139071;-60
2022/06/09 12:46:30;;;;;;;13.30;11.90;;;;;;;27.77;57.91;98150.54;233896;1216;140066;-60
2022/06/09 12:51:34;;;;;;;12.30;11.10;;;;;;;27.88;57.55;98164.87;232817;1217;139142;-59
2022/06/09 12:56:44;;;;;;;28.70;23.80;;;;;;;27.98;57.42;98154.46;233581;1217;139185;-60
2022/06/09 13:02:10;;;;;;;14.20;12.70;;;;;;;28.18;57.29;98138.05;233172;1217;138970;-60
2022/06/09 13:07:22;;;;;;;17.10;12.30;;;;;;;28.34;57.11;98124.39;232517;1216;138905;-60
2022/06/09 13:17:49;;;;;;;12.60;11.30;;;;;;;28.40;55.70;98133.67;233580;1217;140134;-60
2022/06/09 13:22:53;;;;;;;11.60;10.40;;;;;;;28.44;55.71;98144.29;233870;1216;138936;-61
2022/06/09 13:27:57;;;;;;;12.90;10.30;;;;;;;28.49;55.28;98143.41;233672;1217;139386;-61
2022/06/09 13:33:00;;;;;;;11.30;9.90;;;;;;;28.59;55.17;98147.37;233824;1217;139329;-61
2022/06/09 13:38:23;;;;;;;13.30;9.50;;;;;;;28.80;55.06;98130.18;233702;1216;140059;-61
2022/06/09 13:43:30;;;;;;;10.80;9.70;;;;;;;29.02;54.84;98105.70;233566;1216;139290;-61
2022/06/09 13:48:48;;;;;;;11.10;10.00;;;;;;;29.21;54.65;98100.30;233650;1216;138941;-60
2022/06/09 13:54:10;;;;;;;10.60;9.20;;;;;;;29.34;54.04;98148.54;233631;1217;139659;-61
2022/06/09 13:59:13;;;;;;;9.20;8.30;;;;;;;29.20;53.35;98163.25;233582;1216;139623;-61
2022/06/09 14:04:28;;;;;;;9.50;8.50;;;;;;;28.84;52.85;98149.71;233578;1217;139425;-61
2022/06/09 14:09:30;;;;;;;;;;;;;;;28.46;52.58;98137.96;233562;1217;139678;-60
2022/06/09 14:14:33;;;;;;;9.70;8.70;;;;;;;28.09;52.55;98164.29;233703;1217;125617;-60
2022/06/09 14:19:36;;;;;;;11.30;8.70;;;;;;;27.76;52.75;98183.48;232740;1216;138887;-61
2022/06/09 14:24:39;;;;;;;10.20;8.30;;;;;;;27.45;52.82;98188.46;233658;1216;139307;-60
2022/06/09 14:29:42;;;;;;;10.70;8.30;;;;;;;27.17;52.82;98190.72;233619;1216;139030;-60
2022/06/09 14:34:46;;;;;;;11.40;8.30;;;;;;;26.97;53.03;98204.73;233794;1217;138525;-60
2022/06/09 14:39:51;;;;;;;10.00;7.80;;;;;;;26.73;52.99;98187.73;233552;1217;139165;-60
2022/06/09 14:44:54;;;;;;;13.00;9.90;;;;;;;26.53;53.15;98166.31;233600;1217;139334;-59
2022/06/09 14:49:56;;;;;;;9.80;8.80;;;;;;;26.14;53.37;98172.14;233573;1217;139003;-60
2022/06/09 14:54:59;;;;;;;10.30;8.90;;;;;;;25.65;53.56;98198.45;233574;1217;138304;-61
2022/06/09 15:00:07;;;;;;;11.30;8.90;;;;;;;25.26;54.09;98209.70;233566;1216;139049;-62
2022/06/09 15:05:10;;;;;;;11.90;9.80;;;;;;;25.07;54.77;98229.95;233496;1216;141924;-61
2022/06/09 15:10:19;;;;;;;16.90;13.80;;;;;;;24.89;55.02;98224.55;233476;1215;139033;-61
2022/06/09 15:15:23;;;;;;;14.40;11.30;;;;;;;24.74;55.64;98241.27;233575;1215;139465;-61
2022/06/09 15:20:31;;;;;;;20.50;13.60;;;;;;;24.58;56.00;98263.70;232118;1216;144598;-61
2022/06/09 15:25:35;;;;;;;26.20;16.60;;;;;;;24.41;56.16;98279.83;233314;1217;140774;-61
2022/06/09 15:30:39;;;;;;;27.00;16.90;;;;;;;24.23;56.57;98289.00;233574;1217;139063;-61
2022/06/09 15:35:42;;;;;;;23.90;14.20;;;;;;;24.07;56.99;98305.06;233616;1217;139118;-62
2022/06/09 15:40:47;;;;;;;9.00;5.10;;;;;;;23.91;57.42;98312.06;233831;1217;139124;-62
2022/06/09 15:45:52;;;;;;;8.50;4.50;;;;;;;23.68;57.14;98299.98;233633;1217;139769;-62
2022/06/09 15:50:56;;;;;;;;;;;;;;;23.29;56.64;98291.88;233694;1217;138952;-62
2022/06/09 15:56:00;;;;;;;13.20;5.40;;;;;;;22.95;57.01;98298.25;233527;1217;125099;-62
2022/06/09 16:01:03;;;;;;;10.50;6.10;;;;;;;22.71;57.38;98294.20;233688;1217;139776;-62
2022/06/09 16:06:11;;;;;;;18.70;9.70;;;;;;;22.50;57.83;98283.15;233223;1217;139406;-61
2022/06/09 16:11:14;;;;;;;11.80;7.60;;;;;;;22.28;58.15;98293.23;233648;1215;139001;-61
2022/06/09 16:16:17;;;;;;;10.50;5.70;;;;;;;22.07;58.35;98302.81;233114;1215;139200;-61
2022/06/09 16:21:20;;;;;;;11.30;5.80;;;;;;;21.86;58.78;98321.64;233738;1217;141132;-61
2022/06/09 16:26:23;;;;;;;7.70;5.20;;;;;;;21.69;59.22;98343.36;233034;1217;139258;-60
2022/06/09 16:31:28;;;;;;;316.30;226.00;;;;;;;21.54;59.49;98357.88;233677;1216;139282;-60
2022/06/09 16:36:34;;;;;;;12.60;9.30;;;;;;;21.42;59.63;98369.64;233583;1217;139939;-60
2022/06/09 16:41:40;;;;;;;15.70;5.90;;;;;;;21.35;59.90;98377.87;233473;1217;140161;-60
2022/06/09 16:46:43;;;;;;;9.10;6.00;;;;;;;21.32;60.32;98383.08;233451;1215;139223;-60
2022/06/09 16:51:47;;;;;;;12.30;5.90;;;;;;;21.26;60.59;98377.10;233584;1215;139586;-60
2022/06/09 16:56:50;;;;;;;10.60;5.20;;;;;;;21.25;60.87;98374.27;233559;1216;138882;-60
2022/06/09 17:01:53;;;;;;;9.30;6.00;;;;;;;21.23;61.03;98377.64;233517;1216;138953;-59
2022/06/09 17:06:58;;;;;;;12.90;6.20;;;;;;;21.21;61.26;98370.07;233621;1217;139001;-59
2022/06/09 17:12:02;;;;;;;8.00;6.00;;;;;;;21.22;61.68;98365.98;233599;1217;139521;-61
2022/06/09 17:17:06;;;;;;;11.00;6.80;;;;;;;21.30;62.11;98360.77;233610;1217;139626;-60
2022/06/09 17:22:09;;;;;;;10.60;6.60;;;;;;;21.32;62.23;98352.39;233788;1217;139438;-60
2022/06/09 17:27:12;;;;;;;9.20;6.60;;;;;;;21.35;62.41;98371.55;232888;1215;139075;-60
2022/06/09 17:32:15;;;;;;;9.50;7.20;;;;;;;21.37;62.49;98390.22;233716;1216;138893;-60
2022/06/09 17:37:18;;;;;;;10.20;6.40;;;;;;;21.43;62.49;98406.33;232296;1216;140351;-60
2022/06/09 17:42:22;;;;;;;9.60;6.70;;;;;;;21.43;62.52;98415.35;232984;1217;139959;-60
2022/06/09 17:47:26;;;;;;;12.10;6.90;;;;;;;21.46;62.92;98430.69;233728;1216;138937;-59
2022/06/09 17:52:29;;;;;;;8.90;6.40;;;;;;;21.45;63.02;98437.72;233745;1217;138509;-61
2022/06/09 17:57:32;;;;;;;8.10;5.70;;;;;;;21.45;63.02;98453.17;233658;1217;138990;-61
2022/06/09 18:02:35;;;;;;;36.00;28.30;;;;;;;21.41;63.14;98470.46;233358;1216;138800;-59
2022/06/09 18:07:39;;;;;;;8.40;5.30;;;;;;;21.38;63.06;98478.91;233236;1217;139512;-60
2022/06/09 18:12:42;;;;;;;8.10;4.50;;;;;;;21.40;63.27;98476.39;232696;1217;139409;-59
2022/06/09 18:17:45;;;;;;;9.70;4.50;;;;;;;21.42;63.39;98486.21;233553;1217;139470;-59
2022/06/09 18:22:48;;;;;;;9.70;4.30;;;;;;;21.45;63.34;98485.84;233430;1217;139433;-61
2022/06/09 18:27:52;;;;;;;6.90;4.30;;;;;;;21.45;63.40;98490.98;232893;1217;139623;-61
2022/06/09 18:32:55;;;;;;;4.40;3.90;;;;;;;21.42;63.34;98493.23;233205;1217;138794;-61
2022/06/09 18:38:00;;;;;;;7.40;4.00;;;;;;;21.36;63.11;98502.44;233168;1217;139712;-60
2022/06/09 18:43:04;;;;;;;54.20;43.80;;;;;;;21.31;63.31;98490.02;232835;1217;139417;-61
2022/06/09 18:48:12;;;;;;;7.70;5.20;;;;;;;21.38;63.48;98490.68;233354;1217;139726;-62
2022/06/09 18:53:16;;;;;;;6.40;3.80;;;;;;;21.36;63.38;98494.45;233261;1217;139311;-61
2022/06/09 18:58:21;;;;;;;6.50;4.00;;;;;;;21.35;63.41;98515.50;233721;1216;138815;-61
2022/06/09 19:03:28;;;;;;;27.50;21.90;;;;;;;21.29;63.30;98521.59;233647;1217;139786;-62
2022/06/09 19:08:33;;;;;;;8.60;6.10;;;;;;;21.24;63.50;98523.41;233536;1217;139966;-61
2022/06/09 19:13:36;;;;;;;6.80;4.10;;;;;;;21.17;63.31;98522.86;233561;1217;138380;-61
2022/06/09 19:18:41;;;;;;;7.40;4.30;;;;;;;21.12;63.41;98527.58;232432;1217;139838;-60
2022/06/09 19:23:45;;;;;;;21.10;16.40;;;;;;;21.12;63.65;98539.13;233679;1217;139429;-60
2022/06/09 19:28:48;;;;;;;34.00;25.50;;;;;;;21.17;63.86;98546.89;233593;1217;139378;-59
2022/06/09 19:33:51;;;;;;;8.10;5.50;;;;;;;21.16;63.81;98546.95;233482;1217;138934;-60
2022/06/09 19:38:55;;;;;;;8.30;5.30;;;;;;;21.15;63.69;98542.20;233596;1217;138902;-60
2022/06/09 19:43:59;;;;;;;9.90;5.20;;;;;;;21.11;63.77;98551.67;233737;1217;138733;-60
2022/06/09 19:49:04;;;;;;;8.20;5.30;;;;;;;21.13;63.93;98574.57;233283;1217;140548;-61
2022/06/09 19:54:08;;;;;;;7.80;5.50;;;;;;;21.12;63.78;98581.54;232623;1217;138943;-58
2022/06/09 19:59:15;;;;;;;215.30;175.10;;;;;;;21.10;63.92;98580.33;233544;1217;138730;-60
2022/06/09 20:04:18;;;;;;;13.40;10.10;;;;;;;21.07;64.08;98571.59;233880;1216;139979;-59
2022/06/09 20:09:21;;;;;;;7.60;6.10;;;;;;;21.02;63.84;98581.83;233674;1216;138973;-59
2022/06/09 20:14:24;;;;;;;7.90;6.20;;;;;;;20.98;63.99;98587.55;233590;1216;139606;-60
2022/06/09 20:19:27;;;;;;;7.30;5.60;;;;;;;20.96;63.88;98583.65;233488;1217;139446;-59
2022/06/09 20:24:30;;;;;;;7.00;5.80;;;;;;;20.97;63.84;98583.08;233650;1217;141233;-60
2022/06/09 20:29:33;;;;;;;8.30;6.40;;;;;;;20.96;63.99;98586.86;233478;1217;139435;-61
2022/06/09 20:34:39;;;;;;;7.60;6.40;;;;;;;20.94;63.98;98588.73;233496;1217;138304;-60
2022/06/09 20:39:43;;;;;;;9.40;6.70;;;;;;;20.89;64.05;98593.59;233423;1217;139153;-61
2022/06/09 20:44:49;;;;;;;11.40;6.90;;;;;;;20.83;64.14;98599.17;233693;1216;139271;-61
2022/06/09 20:49:58;;;;;;;10.10;7.20;;;;;;;20.81;64.17;98597.48;233470;1217;139624;-61
2022/06/09 20:55:02;;;;;;;10.00;7.90;;;;;;;20.82;64.28;98597.19;233455;1217;139666;-61
2022/06/09 21:00:06;;;;;;;10.90;8.30;;;;;;;20.79;64.33;98603.05;233554;1217;139594;-60
2022/06/09 21:05:14;;;;;;;13.30;8.80;;;;;;;20.76;64.36;98623.36;233667;1215;139540;-61
2022/06/09 21:21:03;;;;;;;11.20;8.20;;;;;;;20.59;64.58;98664.40;233651;1217;139795;-60
2022/06/09 21:26:06;;;;;;;14.00;9.30;;;;;;;20.54;64.78;98673.39;233577;1216;140509;-61
2022/06/09 21:31:10;;;;;;;13.20;9.10;;;;;;;20.54;64.86;98685.43;233560;1217;139538;-59
2022/06/09 21:36:13;;;;;;;15.70;9.50;;;;;;;20.50;64.90;98691.67;233456;1217;139541;-61
2022/06/09 21:41:16;;;;;;;13.40;9.70;;;;;;;20.46;65.00;98699.98;233486;1217;138870;-60
2022/06/09 21:46:21;;;;;;;14.90;9.30;;;;;;;20.45;65.13;98696.73;233820;1216;139274;-59
2022/06/09 21:51:25;;;;;;;11.10;8.70;;;;;;;20.43;65.05;98685.95;233601;1216;140177;-60
2022/06/09 21:56:28;;;;;;;13.30;9.40;;;;;;;20.42;65.05;98694.37;233451;1217;139556;-60
2022/06/09 22:01:31;;;;;;;16.20;9.90;;;;;;;20.38;64.97;98704.19;233598;1217;138931;-61
2022/06/09 22:06:34;;;;;;;16.50;9.70;;;;;;;20.33;65.04;98702.66;233612;1216;139284;-61
2022/06/09 22:11:37;;;;;;;19.60;15.70;;;;;;;20.32;65.26;98701.03;233597;1216;138996;-61
2022/06/09 22:16:40;;;;;;;11.00;8.90;;;;;;;20.28;65.21;98703.97;233483;1217;139227;-61
2022/06/09 22:21:43;;;;;;;9.50;8.20;;;;;;;20.28;65.27;98697.98;233735;1216;140194;-61
2022/06/09 22:26:46;;;;;;;10.50;8.00;;;;;;;20.27;65.14;98698.52;233727;1217;139621;-60
2022/06/09 22:31:50;;;;;;;9.60;7.90;;;;;;;20.25;65.30;98705.89;233629;1217;139075;-60
2022/06/09 22:36:53;;;;;;;12.60;7.80;;;;;;;20.23;65.27;98708.09;233515;1217;139401;-61
2022/06/09 22:41:56;;;;;;;10.10;8.30;;;;;;;20.19;65.27;98719.90;233566;1216;139403;-60
2022/06/09 22:46:59;;;;;;;9.80;7.90;;;;;;;20.15;65.15;98727.19;233737;1217;139913;-60
2022/06/09 22:52:03;;;;;;;10.50;7.80;;;;;;;20.10;65.15;98726.64;233692;1217;139544;-60
2022/06/09 22:57:06;;;;;;;10.20;8.10;;;;;;;20.05;65.01;98728.17;233469;1217;139531;-61
2022/06/09 23:02:09;;;;;;;13.30;9.00;;;;;;;19.96;65.04;98731.65;233672;1217;139506;-61
2022/06/09 23:07:12;;;;;;;11.10;9.30;;;;;;;19.87;65.12;98733.16;233551;1217;140971;-61
2022/06/09 23:12:15;;;;;;;17.90;12.70;;;;;;;19.78;65.26;98754.50;233636;1217;138941;-61
2022/06/09 23:17:21;;;;;;;15.70;9.50;;;;;;;19.75;65.34;98764.13;233513;1217;139707;-61
2022/06/09 23:22:24;;;;;;;9.40;7.30;;;;;;;19.76;65.46;98772.91;233672;1217;139201;-61
2022/06/09 23:27:27;;;;;;;13.20;7.10;;;;;;;19.77;65.46;98782.29;233797;1216;139251;-61
2022/06/09 23:32:30;;;;;;;9.80;6.10;;;;;;;19.81;65.58;98789.64;233487;1216;138884;-61
2022/06/09 23:37:48;;;;;;;6.10;4.90;;;;;;;19.82;65.56;98789.12;233553;1217;138859;-61
2022/06/09 23:42:51;;;;;;;7.70;5.50;;;;;;;19.83;65.45;98788.64;233488;1217;138353;-61
2022/06/09 23:47:54;;;;;;;10.00;5.10;;;;;;;19.81;65.18;98800.06;233639;1215;138420;-61
2022/06/09 23:52:57;;;;;;;10.30;5.00;;;;;;;19.79;65.12;98804.44;233674;1217;140157;-61